sensor_id;sensor_type;location;lat;lon;timestamp;temperature;humidity
29729;DHT22;20055;51.498;11.960;2022-09-24T00:01:27;12.90;99.90
29729;DHT22;20055;51.498;11.960;2022-09-24T00:03:56;12.90;99.90
29729;DHT22;20055;51.498;11.960;2022-09-24T00:06:26;12.90;99.90
29729;DHT22;20055;51.498;11.960;2022-09-24T00:08:54;12.90;99.90
29729;DHT22;20055;51.498;11.960;2022-09-24T00:11:25;13.80;99.90
29729;DHT22;20055;51.498;11.960;2022-09-24T00:13:52;13.70;99.90
29729;DHT22;20055;51.498;11.960;2022-09-24T00:16:20;13.00;99.90
29729;DHT22;20055;51.498;11.960;2022-09-24T00:18:46;12.90;99.90
29729;DHT22;20055;51.498;11.960;2022-09-24T00:21:23;12.90;99.90
29729;DHT22;20055;51.498;11.960;2022-09-24T00:23:55;12.80;99.90
29729;DHT22;20055;51.498;11.960;2022-09-24T00:26:23;12.70;99.90
29729;DHT22;20055;51.498;11.960;2022-09-24T00:29:09;12.70;99.90
29729;DHT22;20055;51.498;11.960;2022-09-24T00:31:37;12.60;99.90
29729;DHT22;20055;51.498;11.960;2022-09-24T00:34:04;12.60;99.90
29729;DHT22;20055;51.498;11.960;2022-09-24T00:36:30;12.60;99.90
29729;DHT22;20055;51.498;11.960;2022-09-24T00:38:58;12.60;99.90
29729;DHT22;20055;51.498;11.960;2022-09-24T00:41:32;12.50;99.90
29729;DHT22;20055;51.498;11.960;2022-09-24T00:43:59;12.50;99.90
29729;DHT22;20055;51.498;11.960;2022-09-24T00:46:30;12.40;99.90
29729;DHT22;20055;51.498;11.960;2022-09-24T00:49:09;12.20;99.90
29729;DHT22;20055;51.498;11.960;2022-09-24T00:51:38;12.10;99.90
29729;DHT22;20055;51.498;11.960;2022-09-24T00:54:10;12.10;99.90
29729;DHT22;20055;51.498;11.960;2022-09-24T00:56:38;12.10;99.90
29729;DHT22;20055;51.498;11.960;2022-09-24T00:59:08;12.10;99.90
29729;DHT22;20055;51.498;11.960;2022-09-24T01:01:36;12.10;99.90
29729;DHT22;20055;51.498;11.960;2022-09-24T01:04:03;12.10;99.90
29729;DHT22;20055;51.498;11.960;2022-09-24T01:06:31;11.90;99.90
29729;DHT22;20055;51.498;11.960;2022-09-24T01:08:57;11.90;99.90
29729;DHT22;20055;51.498;11.960;2022-09-24T01:11:31;12.00;99.90
29729;DHT22;20055;51.498;11.960;2022-09-24T01:17:03;12.00;99.90
29729;DHT22;20055;51.498;11.960;2022-09-24T01:23:03;12.00;99.90
29729;DHT22;20055;51.498;11.960;2022-09-24T01:25:44;12.10;99.90
29729;DHT22;20055;51.498;11.960;2022-09-24T01:28:36;12.20;99.90
29729;DHT22;20055;51.498;11.960;2022-09-24T01:31:17;12.20;99.90
29729;DHT22;20055;51.498;11.960;2022-09-24T01:33:48;12.10;99.90
29729;DHT22;20055;51.498;11.960;2022-09-24T01:36:19;12.10;99.90
29729;DHT22;20055;51.498;11.960;2022-09-24T01:38:48;12.00;99.90
29729;DHT22;20055;51.498;11.960;2022-09-24T01:41:17;11.90;99.90
29729;DHT22;20055;51.498;11.960;2022-09-24T01:43:44;11.90;99.90
29729;DHT22;20055;51.498;11.960;2022-09-24T01:46:11;11.90;99.90
29729;DHT22;20055;51.498;11.960;2022-09-24T01:48:39;12.00;99.90
29729;DHT22;20055;51.498;11.960;2022-09-24T01:51:11;11.90;99.90
29729;DHT22;20055;51.498;11.960;2022-09-24T01:53:47;11.70;99.90
29729;DHT22;20055;51.498;11.960;2022-09-24T01:56:29;11.70;99.90
29729;DHT22;20055;51.498;11.960;2022-09-24T01:59:04;11.60;99.90
29729;DHT22;20055;51.498;11.960;2022-09-24T02:01:41;11.60;99.90
29729;DHT22;20055;51.498;11.960;2022-09-24T02:04:14;11.50;99.90
29729;DHT22;20055;51.498;11.960;2022-09-24T02:06:51;11.50;99.90
29729;DHT22;20055;51.498;11.960;2022-09-24T02:09:37;11.50;99.90
29729;DHT22;20055;51.498;11.960;2022-09-24T02:12:12;11.50;99.90
29729;DHT22;20055;51.498;11.960;2022-09-24T02:14:48;11.50;99.90
29729;DHT22;20055;51.498;11.960;2022-09-24T02:17:15;11.50;99.90
29729;DHT22;20055;51.498;11.960;2022-09-24T02:19:43;11.50;99.90
29729;DHT22;20055;51.498;11.960;2022-09-24T02:22:12;11.60;99.90
29729;DHT22;20055;51.498;11.960;2022-09-24T02:24:47;11.60;99.90
29729;DHT22;20055;51.498;11.960;2022-09-24T02:27:16;11.60;99.90
29729;DHT22;20055;51.498;11.960;2022-09-24T02:29:42;11.70;99.90
29729;DHT22;20055;51.498;11.960;2022-09-24T02:32:13;11.70;99.90
29729;DHT22;20055;51.498;11.960;2022-09-24T02:34:44;11.70;99.90
29729;DHT22;20055;51.498;11.960;2022-09-24T02:37:14;11.70;99.90
29729;DHT22;20055;51.498;11.960;2022-09-24T02:39:41;11.70;99.90
29729;DHT22;20055;51.498;11.960;2022-09-24T02:42:09;11.60;99.90
29729;DHT22;20055;51.498;11.960;2022-09-24T02:44:37;11.60;99.90
29729;DHT22;20055;51.498;11.960;2022-09-24T02:47:04;11.50;99.90
29729;DHT22;20055;51.498;11.960;2022-09-24T02:49:31;11.50;99.90
29729;DHT22;20055;51.498;11.960;2022-09-24T02:51:58;11.40;99.90
29729;DHT22;20055;51.498;11.960;2022-09-24T02:54:24;11.40;99.90
29729;DHT22;20055;51.498;11.960;2022-09-24T02:56:51;11.30;99.90
29729;DHT22;20055;51.498;11.960;2022-09-24T02:59:18;11.30;99.90
29729;DHT22;20055;51.498;11.960;2022-09-24T03:01:45;11.30;99.90
29729;DHT22;20055;51.498;11.960;2022-09-24T03:04:11;11.30;99.90
29729;DHT22;20055;51.498;11.960;2022-09-24T03:06:38;11.20;99.90
29729;DHT22;20055;51.498;11.960;2022-09-24T03:09:04;11.20;99.90
29729;DHT22;20055;51.498;11.960;2022-09-24T03:11:31;11.20;99.90
29729;DHT22;20055;51.498;11.960;2022-09-24T03:13:58;11.30;99.90
29729;DHT22;20055;51.498;11.960;2022-09-24T03:16:25;11.30;99.90
29729;DHT22;20055;51.498;11.960;2022-09-24T03:18:51;11.30;99.90
29729;DHT22;20055;51.498;11.960;2022-09-24T03:21:19;11.40;99.90
29729;DHT22;20055;51.498;11.960;2022-09-24T03:23:46;11.40;99.90
29729;DHT22;20055;51.498;11.960;2022-09-24T03:26:13;11.40;99.90
29729;DHT22;20055;51.498;11.960;2022-09-24T03:28:39;11.30;99.90
29729;DHT22;20055;51.498;11.960;2022-09-24T03:31:06;11.30;99.90
29729;DHT22;20055;51.498;11.960;2022-09-24T03:33:43;11.30;99.90
29729;DHT22;20055;51.498;11.960;2022-09-24T03:36:30;11.30;99.90
29729;DHT22;20055;51.498;11.960;2022-09-24T03:38:56;11.30;99.90
29729;DHT22;20055;51.498;11.960;2022-09-24T03:41:24;11.30;99.90
29729;DHT22;20055;51.498;11.960;2022-09-24T03:43:52;11.20;99.90
29729;DHT22;20055;51.498;11.960;2022-09-24T03:46:18;11.20;99.90
29729;DHT22;20055;51.498;11.960;2022-09-24T03:48:45;11.20;99.90
29729;DHT22;20055;51.498;11.960;2022-09-24T03:51:15;11.20;99.90
29729;DHT22;20055;51.498;11.960;2022-09-24T03:53:41;11.20;99.90
29729;DHT22;20055;51.498;11.960;2022-09-24T03:56:07;11.20;99.90
29729;DHT22;20055;51.498;11.960;2022-09-24T03:58:35;11.20;99.90
29729;DHT22;20055;51.498;11.960;2022-09-24T04:01:04;11.20;99.90
29729;DHT22;20055;51.498;11.960;2022-09-24T04:03:30;11.30;99.90
29729;DHT22;20055;51.498;11.960;2022-09-24T04:05:57;11.30;99.90
29729;DHT22;20055;51.498;11.960;2022-09-24T04:08:23;11.30;99.90
29729;DHT22;20055;51.498;11.960;2022-09-24T04:10:50;11.20;99.90
29729;DHT22;20055;51.498;11.960;2022-09-24T04:13:17;11.00;99.90
29729;DHT22;20055;51.498;11.960;2022-09-24T04:15:44;11.00;99.90
29729;DHT22;20055;51.498;11.960;2022-09-24T04:18:10;10.90;99.90
29729;DHT22;20055;51.498;11.960;2022-09-24T04:20:36;10.90;99.90
29729;DHT22;20055;51.498;11.960;2022-09-24T04:23:03;11.00;99.90
29729;DHT22;20055;51.498;11.960;2022-09-24T04:25:31;10.90;99.90
29729;DHT22;20055;51.498;11.960;2022-09-24T04:28:00;10.80;99.90
29729;DHT22;20055;51.498;11.960;2022-09-24T04:30:29;10.80;99.90
29729;DHT22;20055;51.498;11.960;2022-09-24T04:32:55;10.80;99.90
29729;DHT22;20055;51.498;11.960;2022-09-24T04:35:26;10.70;99.90
29729;DHT22;20055;51.498;11.960;2022-09-24T04:37:52;10.70;99.90
29729;DHT22;20055;51.498;11.960;2022-09-24T04:40:18;10.60;99.90
29729;DHT22;20055;51.498;11.960;2022-09-24T04:42:45;10.60;99.90
29729;DHT22;20055;51.498;11.960;2022-09-24T04:45:13;10.70;99.90
29729;DHT22;20055;51.498;11.960;2022-09-24T04:47:42;10.70;99.90
29729;DHT22;20055;51.498;11.960;2022-09-24T04:50:09;10.70;99.90
29729;DHT22;20055;51.498;11.960;2022-09-24T04:52:37;10.70;99.90
29729;DHT22;20055;51.498;11.960;2022-09-24T04:55:04;10.70;99.90
29729;DHT22;20055;51.498;11.960;2022-09-24T04:57:31;10.80;99.90
29729;DHT22;20055;51.498;11.960;2022-09-24T05:00:00;9.70;99.90
29729;DHT22;20055;51.498;11.960;2022-09-24T05:02:26;10.80;99.90
29729;DHT22;20055;51.498;11.960;2022-09-24T05:04:53;10.80;99.90
29729;DHT22;20055;51.498;11.960;2022-09-24T05:07:19;10.70;99.90
29729;DHT22;20055;51.498;11.960;2022-09-24T05:09:45;10.60;99.90
29729;DHT22;20055;51.498;11.960;2022-09-24T05:12:11;10.80;99.90
29729;DHT22;20055;51.498;11.960;2022-09-24T05:14:38;11.30;99.90
29729;DHT22;20055;51.498;11.960;2022-09-24T05:17:04;11.80;99.90
29729;DHT22;20055;51.498;11.960;2022-09-24T05:19:30;12.40;99.90
29729;DHT22;20055;51.498;11.960;2022-09-24T05:21:56;13.00;99.90
29729;DHT22;20055;51.498;11.960;2022-09-24T05:24:23;12.30;99.90
29729;DHT22;20055;51.498;11.960;2022-09-24T05:26:49;12.60;99.90
29729;DHT22;20055;51.498;11.960;2022-09-24T05:29:39;12.40;99.90
29729;DHT22;20055;51.498;11.960;2022-09-24T05:32:08;13.20;99.90
29729;DHT22;20055;51.498;11.960;2022-09-24T05:34:34;13.00;99.90
29729;DHT22;20055;51.498;11.960;2022-09-24T05:37:02;13.50;99.90
29729;DHT22;20055;51.498;11.960;2022-09-24T05:39:29;13.80;99.90
29729;DHT22;20055;51.498;11.960;2022-09-24T05:41:56;13.10;99.90
29729;DHT22;20055;51.498;11.960;2022-09-24T05:44:22;13.50;99.90
29729;DHT22;20055;51.498;11.960;2022-09-24T05:46:50;13.50;99.90
29729;DHT22;20055;51.498;11.960;2022-09-24T05:49:17;13.50;99.90
29729;DHT22;20055;51.498;11.960;2022-09-24T05:51:43;13.60;99.90
29729;DHT22;20055;51.498;11.960;2022-09-24T05:54:09;13.20;99.90
29729;DHT22;20055;51.498;11.960;2022-09-24T05:56:37;13.00;99.90
29729;DHT22;20055;51.498;11.960;2022-09-24T05:59:04;13.20;99.90
29729;DHT22;20055;51.498;11.960;2022-09-24T06:01:30;13.10;99.90
29729;DHT22;20055;51.498;11.960;2022-09-24T06:03:57;12.90;99.90
29729;DHT22;20055;51.498;11.960;2022-09-24T06:06:26;13.30;99.90
29729;DHT22;20055;51.498;11.960;2022-09-24T06:08:53;13.00;99.90
29729;DHT22;20055;51.498;11.960;2022-09-24T06:11:20;13.10;99.90
29729;DHT22;20055;51.498;11.960;2022-09-24T06:13:49;13.20;99.90
29729;DHT22;20055;51.498;11.960;2022-09-24T06:16:16;13.40;99.90
29729;DHT22;20055;51.498;11.960;2022-09-24T06:18:43;13.40;99.90
29729;DHT22;20055;51.498;11.960;2022-09-24T06:21:11;13.50;99.90
29729;DHT22;20055;51.498;11.960;2022-09-24T06:23:38;13.10;99.90
29729;DHT22;20055;51.498;11.960;2022-09-24T06:26:05;12.80;99.90
29729;DHT22;20055;51.498;11.960;2022-09-24T06:28:36;13.10;99.90
29729;DHT22;20055;51.498;11.960;2022-09-24T06:31:03;13.30;99.90
29729;DHT22;20055;51.498;11.960;2022-09-24T06:33:30;13.70;99.90
29729;DHT22;20055;51.498;11.960;2022-09-24T06:36:02;13.40;99.90
29729;DHT22;20055;51.498;11.960;2022-09-24T06:38:29;13.50;99.90
29729;DHT22;20055;51.498;11.960;2022-09-24T06:41:00;13.30;99.90
29729;DHT22;20055;51.498;11.960;2022-09-24T06:43:26;13.50;99.90
29729;DHT22;20055;51.498;11.960;2022-09-24T06:45:57;13.60;99.90
29729;DHT22;20055;51.498;11.960;2022-09-24T06:48:23;13.90;99.90
29729;DHT22;20055;51.498;11.960;2022-09-24T06:50:50;14.10;99.90
29729;DHT22;20055;51.498;11.960;2022-09-24T06:53:17;13.60;99.90
29729;DHT22;20055;51.498;11.960;2022-09-24T06:55:44;13.80;99.90
29729;DHT22;20055;51.498;11.960;2022-09-24T06:58:16;14.20;99.90
29729;DHT22;20055;51.498;11.960;2022-09-24T07:00:50;14.80;99.90
29729;DHT22;20055;51.498;11.960;2022-09-24T07:03:16;15.30;99.90
29729;DHT22;20055;51.498;11.960;2022-09-24T07:05:42;15.30;99.90
29729;DHT22;20055;51.498;11.960;2022-09-24T07:08:09;14.70;99.90
29729;DHT22;20055;51.498;11.960;2022-09-24T07:10:35;15.30;99.90
29729;DHT22;20055;51.498;11.960;2022-09-24T07:13:02;15.50;99.90
29729;DHT22;20055;51.498;11.960;2022-09-24T07:15:29;14.50;99.90
29729;DHT22;20055;51.498;11.960;2022-09-24T07:17:56;15.00;99.90
29729;DHT22;20055;51.498;11.960;2022-09-24T07:20:23;14.70;99.90
29729;DHT22;20055;51.498;11.960;2022-09-24T07:22:49;14.50;99.90
29729;DHT22;20055;51.498;11.960;2022-09-24T07:25:16;15.20;99.90
29729;DHT22;20055;51.498;11.960;2022-09-24T07:27:42;14.80;99.90
29729;DHT22;20055;51.498;11.960;2022-09-24T07:30:10;14.80;99.90
29729;DHT22;20055;51.498;11.960;2022-09-24T07:32:37;14.80;99.90
29729;DHT22;20055;51.498;11.960;2022-09-24T07:35:04;14.20;99.90
29729;DHT22;20055;51.498;11.960;2022-09-24T07:37:31;14.30;99.90
29729;DHT22;20055;51.498;11.960;2022-09-24T07:39:59;14.80;99.90
29729;DHT22;20055;51.498;11.960;2022-09-24T07:42:25;14.20;99.90
29729;DHT22;20055;51.498;11.960;2022-09-24T07:44:53;14.80;99.90
29729;DHT22;20055;51.498;11.960;2022-09-24T07:47:21;14.30;99.90
29729;DHT22;20055;51.498;11.960;2022-09-24T07:49:48;14.10;99.90
29729;DHT22;20055;51.498;11.960;2022-09-24T07:52:14;14.80;99.90
29729;DHT22;20055;51.498;11.960;2022-09-24T07:54:40;14.90;99.90
29729;DHT22;20055;51.498;11.960;2022-09-24T07:57:11;15.20;99.90
29729;DHT22;20055;51.498;11.960;2022-09-24T07:59:40;15.40;99.90
29729;DHT22;20055;51.498;11.960;2022-09-24T08:02:16;15.60;99.90
29729;DHT22;20055;51.498;11.960;2022-09-24T08:04:44;16.20;99.90
29729;DHT22;20055;51.498;11.960;2022-09-24T08:07:12;16.60;99.90
29729;DHT22;20055;51.498;11.960;2022-09-24T08:09:38;16.50;99.90
29729;DHT22;20055;51.498;11.960;2022-09-24T08:12:06;16.80;99.90
29729;DHT22;20055;51.498;11.960;2022-09-24T08:14:32;17.50;99.90
29729;DHT22;20055;51.498;11.960;2022-09-24T08:16:58;16.70;99.90
29729;DHT22;20055;51.498;11.960;2022-09-24T08:19:25;16.90;99.90
29729;DHT22;20055;51.498;11.960;2022-09-24T08:21:53;17.20;99.90
29729;DHT22;20055;51.498;11.960;2022-09-24T08:24:19;17.10;99.90
29729;DHT22;20055;51.498;11.960;2022-09-24T08:26:45;17.60;99.90
29729;DHT22;20055;51.498;11.960;2022-09-24T08:29:11;17.20;99.90
29729;DHT22;20055;51.498;11.960;2022-09-24T08:31:37;17.60;99.90
29729;DHT22;20055;51.498;11.960;2022-09-24T08:34:06;18.00;99.90
29729;DHT22;20055;51.498;11.960;2022-09-24T08:36:32;17.90;99.90
29729;DHT22;20055;51.498;11.960;2022-09-24T08:38:58;18.00;99.90
29729;DHT22;20055;51.498;11.960;2022-09-24T08:41:40;18.10;99.90
29729;DHT22;20055;51.498;11.960;2022-09-24T08:44:21;17.60;99.90
29729;DHT22;20055;51.498;11.960;2022-09-24T08:50:07;17.60;99.90
29729;DHT22;20055;51.498;11.960;2022-09-24T08:55:23;18.10;99.90
29729;DHT22;20055;51.498;11.960;2022-09-24T08:58:15;17.80;99.90
29729;DHT22;20055;51.498;11.960;2022-09-24T09:01:11;18.10;99.90
29729;DHT22;20055;51.498;11.960;2022-09-24T09:11:06;19.20;99.90
29729;DHT22;20055;51.498;11.960;2022-09-24T09:13:38;19.10;99.90
29729;DHT22;20055;51.498;11.960;2022-09-24T09:16:19;19.20;99.90
29729;DHT22;20055;51.498;11.960;2022-09-24T09:18:48;19.00;99.90
29729;DHT22;20055;51.498;11.960;2022-09-24T09:21:29;19.00;99.90
29729;DHT22;20055;51.498;11.960;2022-09-24T09:23:58;19.20;99.90
29729;DHT22;20055;51.498;11.960;2022-09-24T09:26:27;19.10;99.90
29729;DHT22;20055;51.498;11.960;2022-09-24T09:28:57;19.00;99.90
29729;DHT22;20055;51.498;11.960;2022-09-24T09:39:55;19.50;99.90
29729;DHT22;20055;51.498;11.960;2022-09-24T09:44:53;19.30;99.90
29729;DHT22;20055;51.498;11.960;2022-09-24T09:47:38;19.40;99.90
29729;DHT22;20055;51.498;11.960;2022-09-24T09:50:17;19.60;99.90
29729;DHT22;20055;51.498;11.960;2022-09-24T09:52:46;19.60;99.90
29729;DHT22;20055;51.498;11.960;2022-09-24T09:55:20;19.50;99.90
29729;DHT22;20055;51.498;11.960;2022-09-24T09:57:48;19.60;99.90
29729;DHT22;20055;51.498;11.960;2022-09-24T10:00:41;19.60;99.90
29729;DHT22;20055;51.498;11.960;2022-09-24T10:03:27;19.80;99.90
29729;DHT22;20055;51.498;11.960;2022-09-24T10:05:57;19.80;99.90
29729;DHT22;20055;51.498;11.960;2022-09-24T10:08:25;19.90;99.90
29729;DHT22;20055;51.498;11.960;2022-09-24T10:10:56;20.20;99.90
29729;DHT22;20055;51.498;11.960;2022-09-24T10:13:23;20.30;99.90
29729;DHT22;20055;51.498;11.960;2022-09-24T10:15:57;20.50;99.90
29729;DHT22;20055;51.498;11.960;2022-09-24T10:18:30;20.70;99.90
29729;DHT22;20055;51.498;11.960;2022-09-24T10:20:58;22.30;99.70
29729;DHT22;20055;51.498;11.960;2022-09-24T10:23:36;20.50;97.90
29729;DHT22;20055;51.498;11.960;2022-09-24T10:26:05;20.40;98.90
29729;DHT22;20055;51.498;11.960;2022-09-24T10:28:35;20.60;98.80
29729;DHT22;20055;51.498;11.960;2022-09-24T10:31:23;20.70;99.70
29729;DHT22;20055;51.498;11.960;2022-09-24T10:33:53;20.90;98.40
29729;DHT22;20055;51.498;11.960;2022-09-24T10:36:26;21.10;98.70
29729;DHT22;20055;51.498;11.960;2022-09-24T10:41:34;21.10;97.10
29729;DHT22;20055;51.498;11.960;2022-09-24T10:44:04;21.10;96.80
29729;DHT22;20055;51.498;11.960;2022-09-24T10:52:11;21.10;97.40
29729;DHT22;20055;51.498;11.960;2022-09-24T10:54:49;21.10;97.00
29729;DHT22;20055;51.498;11.960;2022-09-24T10:57:35;21.20;96.80
29729;DHT22;20055;51.498;11.960;2022-09-24T11:00:15;21.30;97.30
29729;DHT22;20055;51.498;11.960;2022-09-24T11:19:27;21.60;95.70
29729;DHT22;20055;51.498;11.960;2022-09-24T11:22:02;21.70;95.70
29729;DHT22;20055;51.498;11.960;2022-09-24T11:24:55;21.70;95.00
29729;DHT22;20055;51.498;11.960;2022-09-24T11:30:24;21.70;94.60
29729;DHT22;20055;51.498;11.960;2022-09-24T11:41:20;21.40;94.00
29729;DHT22;20055;51.498;11.960;2022-09-24T11:46:49;21.60;94.00
29729;DHT22;20055;51.498;11.960;2022-09-24T11:52:04;21.20;95.20
29729;DHT22;20055;51.498;11.960;2022-09-24T11:54:58;21.30;95.60
29729;DHT22;20055;51.498;11.960;2022-09-24T11:57:27;21.50;94.80
29729;DHT22;20055;51.498;11.960;2022-09-24T12:00:11;21.50;93.20
29729;DHT22;20055;51.498;11.960;2022-09-24T12:02:59;21.50;93.10
29729;DHT22;20055;51.498;11.960;2022-09-24T12:05:55;21.60;93.60
29729;DHT22;20055;51.498;11.960;2022-09-24T12:08:32;21.70;93.80
29729;DHT22;20055;51.498;11.960;2022-09-24T12:11:30;21.80;93.80
29729;DHT22;20055;51.498;11.960;2022-09-24T12:14:18;21.90;93.20
29729;DHT22;20055;51.498;11.960;2022-09-24T12:16:56;22.10;92.90
29729;DHT22;20055;51.498;11.960;2022-09-24T12:20:01;22.40;93.90
29729;DHT22;20055;51.498;11.960;2022-09-24T12:22:30;22.00;93.80
29729;DHT22;20055;51.498;11.960;2022-09-24T12:24:59;22.20;93.40
29729;DHT22;20055;51.498;11.960;2022-09-24T12:27:37;22.10;92.90
29729;DHT22;20055;51.498;11.960;2022-09-24T12:30:32;22.20;93.90
29729;DHT22;20055;51.498;11.960;2022-09-24T12:33:29;22.20;94.30
29729;DHT22;20055;51.498;11.960;2022-09-24T12:36:23;22.30;93.90
29729;DHT22;20055;51.498;11.960;2022-09-24T12:39:02;22.50;93.60
29729;DHT22;20055;51.498;11.960;2022-09-24T12:41:30;22.60;93.40
29729;DHT22;20055;51.498;11.960;2022-09-24T12:44:04;22.60;91.40
29729;DHT22;20055;51.498;11.960;2022-09-24T12:46:43;22.20;91.60
29729;DHT22;20055;51.498;11.960;2022-09-24T12:51:51;21.20;92.40
29729;DHT22;20055;51.498;11.960;2022-09-24T12:54:32;21.00;93.10
29729;DHT22;20055;51.498;11.960;2022-09-24T12:57:15;21.40;93.50
29729;DHT22;20055;51.498;11.960;2022-09-24T12:59:49;20.70;93.20
29729;DHT22;20055;51.498;11.960;2022-09-24T13:10:34;21.20;93.40
29729;DHT22;20055;51.498;11.960;2022-09-24T13:13:13;21.40;91.90
29729;DHT22;20055;51.498;11.960;2022-09-24T13:15:40;21.70;91.40
29729;DHT22;20055;51.498;11.960;2022-09-24T13:20:38;22.20;90.50
29729;DHT22;20055;51.498;11.960;2022-09-24T13:25:55;22.30;88.90
29729;DHT22;20055;51.498;11.960;2022-09-24T13:28:27;22.30;88.70
29729;DHT22;20055;51.498;11.960;2022-09-24T13:33:46;22.30;87.90
29729;DHT22;20055;51.498;11.960;2022-09-24T13:36:35;22.40;87.90
29729;DHT22;20055;51.498;11.960;2022-09-24T13:41:44;22.10;87.80
29729;DHT22;20055;51.498;11.960;2022-09-24T13:46:44;22.50;87.90
29729;DHT22;20055;51.498;11.960;2022-09-24T13:49:15;22.40;88.10
29729;DHT22;20055;51.498;11.960;2022-09-24T13:51:46;22.20;86.90
29729;DHT22;20055;51.498;11.960;2022-09-24T13:54:31;22.20;87.30
29729;DHT22;20055;51.498;11.960;2022-09-24T13:57:13;22.20;87.20
29729;DHT22;20055;51.498;11.960;2022-09-24T13:59:44;22.10;89.30
29729;DHT22;20055;51.498;11.960;2022-09-24T14:02:25;21.70;89.30
29729;DHT22;20055;51.498;11.960;2022-09-24T14:04:59;21.50;90.20
29729;DHT22;20055;51.498;11.960;2022-09-24T14:07:26;22.00;90.50
29729;DHT22;20055;51.498;11.960;2022-09-24T14:10:11;21.20;90.40
29729;DHT22;20055;51.498;11.960;2022-09-24T14:12:38;21.20;91.10
29729;DHT22;20055;51.498;11.960;2022-09-24T14:15:15;21.10;90.90
29729;DHT22;20055;51.498;11.960;2022-09-24T14:17:59;21.00;91.30
29729;DHT22;20055;51.498;11.960;2022-09-24T14:20:29;20.90;91.40
29729;DHT22;20055;51.498;11.960;2022-09-24T14:22:58;20.80;91.50
29729;DHT22;20055;51.498;11.960;2022-09-24T14:25:33;20.80;91.50
29729;DHT22;20055;51.498;11.960;2022-09-24T14:28:01;20.90;91.40
29729;DHT22;20055;51.498;11.960;2022-09-24T14:30:29;20.90;91.30
29729;DHT22;20055;51.498;11.960;2022-09-24T14:33:13;20.90;90.10
29729;DHT22;20055;51.498;11.960;2022-09-24T14:35:45;21.00;89.40
29729;DHT22;20055;51.498;11.960;2022-09-24T14:38:20;21.00;90.10
29729;DHT22;20055;51.498;11.960;2022-09-24T14:40:53;21.00;90.10
29729;DHT22;20055;51.498;11.960;2022-09-24T14:43:24;21.10;90.00
29729;DHT22;20055;51.498;11.960;2022-09-24T14:48:49;21.10;89.60
29729;DHT22;20055;51.498;11.960;2022-09-24T14:51:27;20.10;88.50
29729;DHT22;20055;51.498;11.960;2022-09-24T14:54:19;21.30;88.20
29729;DHT22;20055;51.498;11.960;2022-09-24T14:56:47;21.20;87.70
29729;DHT22;20055;51.498;11.960;2022-09-24T14:59:14;21.30;87.70
29729;DHT22;20055;51.498;11.960;2022-09-24T15:01:42;21.40;87.60
29729;DHT22;20055;51.498;11.960;2022-09-24T15:04:19;21.40;87.30
29729;DHT22;20055;51.498;11.960;2022-09-24T15:06:48;21.40;87.30
29729;DHT22;20055;51.498;11.960;2022-09-24T15:09:27;21.40;87.90
29729;DHT22;20055;51.498;11.960;2022-09-24T15:12:08;21.50;88.40
29729;DHT22;20055;51.498;11.960;2022-09-24T15:14:53;21.30;89.80
29729;DHT22;20055;51.498;11.960;2022-09-24T15:17:21;21.10;90.40
29729;DHT22;20055;51.498;11.960;2022-09-24T15:19:48;21.10;90.50
29729;DHT22;20055;51.498;11.960;2022-09-24T15:22:19;20.90;90.90
29729;DHT22;20055;51.498;11.960;2022-09-24T15:24:53;21.50;91.30
29729;DHT22;20055;51.498;11.960;2022-09-24T15:27:24;20.80;91.10
29729;DHT22;20055;51.498;11.960;2022-09-24T15:29:59;20.70;91.40
29729;DHT22;20055;51.498;11.960;2022-09-24T15:32:27;20.50;91.60
29729;DHT22;20055;51.498;11.960;2022-09-24T15:34:54;20.30;91.80
29729;DHT22;20055;51.498;11.960;2022-09-24T15:37:26;20.10;92.00
29729;DHT22;20055;51.498;11.960;2022-09-24T15:39:56;20.00;92.60
29729;DHT22;20055;51.498;11.960;2022-09-24T15:42:24;19.90;92.40
29729;DHT22;20055;51.498;11.960;2022-09-24T15:44:51;19.90;92.40
29729;DHT22;20055;51.498;11.960;2022-09-24T15:47:20;19.80;93.40
29729;DHT22;20055;51.498;11.960;2022-09-24T15:49:46;19.70;93.50
29729;DHT22;20055;51.498;11.960;2022-09-24T15:54:50;19.50;93.80
29729;DHT22;20055;51.498;11.960;2022-09-24T15:57:16;19.40;93.90
29729;DHT22;20055;51.498;11.960;2022-09-24T15:59:43;19.40;94.10
29729;DHT22;20055;51.498;11.960;2022-09-24T16:02:15;19.30;94.80
29729;DHT22;20055;51.498;11.960;2022-09-24T16:04:42;19.20;94.60
29729;DHT22;20055;51.498;11.960;2022-09-24T16:07:09;19.20;95.00
29729;DHT22;20055;51.498;11.960;2022-09-24T16:09:35;19.10;95.30
29729;DHT22;20055;51.498;11.960;2022-09-24T16:12:01;19.10;95.40
29729;DHT22;20055;51.498;11.960;2022-09-24T16:14:27;19.20;95.50
29729;DHT22;20055;51.498;11.960;2022-09-24T16:16:54;19.10;95.60
29729;DHT22;20055;51.498;11.960;2022-09-24T16:19:21;19.10;96.00
29729;DHT22;20055;51.498;11.960;2022-09-24T16:21:47;19.10;96.00
29729;DHT22;20055;51.498;11.960;2022-09-24T16:24:14;19.00;96.20
29729;DHT22;20055;51.498;11.960;2022-09-24T16:26:40;19.00;96.10
29729;DHT22;20055;51.498;11.960;2022-09-24T16:29:06;19.10;96.20
29729;DHT22;20055;51.498;11.960;2022-09-24T16:31:34;19.00;96.40
29729;DHT22;20055;51.498;11.960;2022-09-24T16:34:00;19.00;96.70
29729;DHT22;20055;51.498;11.960;2022-09-24T16:36:27;19.00;97.00
29729;DHT22;20055;51.498;11.960;2022-09-24T16:38:53;18.90;97.10
29729;DHT22;20055;51.498;11.960;2022-09-24T16:41:19;18.90;97.60
29729;DHT22;20055;51.498;11.960;2022-09-24T16:43:45;20.00;97.80
29729;DHT22;20055;51.498;11.960;2022-09-24T16:46:12;18.70;97.60
29729;DHT22;20055;51.498;11.960;2022-09-24T16:48:38;18.60;97.80
29729;DHT22;20055;51.498;11.960;2022-09-24T16:51:08;18.60;98.10
29729;DHT22;20055;51.498;11.960;2022-09-24T16:53:35;18.60;98.10
29729;DHT22;20055;51.498;11.960;2022-09-24T16:56:19;19.20;98.40
29729;DHT22;20055;51.498;11.960;2022-09-24T16:58:45;18.50;98.40
29729;DHT22;20055;51.498;11.960;2022-09-24T17:01:14;18.40;98.70
29729;DHT22;20055;51.498;11.960;2022-09-24T17:03:41;18.30;99.10
29729;DHT22;20055;51.498;11.960;2022-09-24T17:06:07;18.20;99.30
29729;DHT22;20055;51.498;11.960;2022-09-24T17:08:35;18.20;99.80
29729;DHT22;20055;51.498;11.960;2022-09-24T17:11:21;18.10;99.90
29729;DHT22;20055;51.498;11.960;2022-09-24T17:13:47;18.00;99.90
29729;DHT22;20055;51.498;11.960;2022-09-24T17:16:14;18.30;99.90
29729;DHT22;20055;51.498;11.960;2022-09-24T17:18:40;17.80;99.90
29729;DHT22;20055;51.498;11.960;2022-09-24T17:21:11;17.80;99.90